sensor_id;sensor_type;location;lat;lon;timestamp;P1;durP1;ratioP1;P2;durP2;ratioP2
6667;SDS011;3370;47.712;9.082;2023-05-10T00:00:13;0.70;;;0.70;;
6667;SDS011;3370;47.712;9.082;2023-05-10T00:02:39;0.70;;;0.70;;
6667;SDS011;3370;47.712;9.082;2023-05-10T00:05:05;0.80;;;0.80;;
6667;SDS011;3370;47.712;9.082;2023-05-10T00:07:32;0.83;;;0.83;;
6667;SDS011;3370;47.712;9.082;2023-05-10T00:09:57;3.03;;;1.10;;
6667;SDS011;3370;47.712;9.082;2023-05-10T00:12:23;0.80;;;0.80;;
6667;SDS011;3370;47.712;9.082;2023-05-10T00:14:49;1.67;;;0.97;;
6667;SDS011;3370;47.712;9.082;2023-05-10T00:17:15;0.80;;;0.80;;
6667;SDS011;3370;47.712;9.082;2023-05-10T00:19:40;0.90;;;0.90;;
6667;SDS011;3370;47.712;9.082;2023-05-10T00:22:06;0.80;;;0.80;;
6667;SDS011;3370;47.712;9.082;2023-05-10T00:24:32;1.90;;;1.10;;
6667;SDS011;3370;47.712;9.082;2023-05-10T00:26:58;2.40;;;0.80;;
6667;SDS011;3370;47.712;9.082;2023-05-10T00:29:23;0.93;;;0.93;;
6667;SDS011;3370;47.712;9.082;2023-05-10T00:31:49;3.33;;;1.00;;
6667;SDS011;3370;47.712;9.082;2023-05-10T00:34:15;0.93;;;0.90;;
6667;SDS011;3370;47.712;9.082;2023-05-10T00:36:41;1.47;;;0.73;;
6667;SDS011;3370;47.712;9.082;2023-05-10T00:39:06;2.63;;;0.80;;
6667;SDS011;3370;47.712;9.082;2023-05-10T00:41:32;1.70;;;0.80;;
6667;SDS011;3370;47.712;9.082;2023-05-10T00:43:58;1.70;;;1.10;;
6667;SDS011;3370;47.712;9.082;2023-05-10T00:46:24;4.73;;;1.40;;
6667;SDS011;3370;47.712;9.082;2023-05-10T00:48:50;2.50;;;1.10;;
6667;SDS011;3370;47.712;9.082;2023-05-10T00:51:16;0.90;;;0.90;;
6667;SDS011;3370;47.712;9.082;2023-05-10T00:53:43;1.10;;;1.00;;
6667;SDS011;3370;47.712;9.082;2023-05-10T00:56:11;0.80;;;0.80;;
6667;SDS011;3370;47.712;9.082;2023-05-10T00:58:37;1.00;;;1.00;;
6667;SDS011;3370;47.712;9.082;2023-05-10T01:01:04;1.10;;;1.10;;
6667;SDS011;3370;47.712;9.082;2023-05-10T01:03:31;0.90;;;0.90;;
6667;SDS011;3370;47.712;9.082;2023-05-10T01:05:57;0.83;;;0.83;;
6667;SDS011;3370;47.712;9.082;2023-05-10T01:08:23;1.13;;;1.13;;
6667;SDS011;3370;47.712;9.082;2023-05-10T01:10:51;0.80;;;0.80;;
6667;SDS011;3370;47.712;9.082;2023-05-10T01:13:40;1.10;;;1.10;;
6667;SDS011;3370;47.712;9.082;2023-05-10T01:16:05;2.60;;;0.90;;
6667;SDS011;3370;47.712;9.082;2023-05-10T01:18:33;0.87;;;0.87;;
6667;SDS011;3370;47.712;9.082;2023-05-10T01:33:26;1.10;;;1.10;;
6667;SDS011;3370;47.712;9.082;2023-05-10T01:36:43;1.17;;;1.17;;
6667;SDS011;3370;47.712;9.082;2023-05-10T01:42:14;1.03;;;1.00;;
6667;SDS011;3370;47.712;9.082;2023-05-10T01:44:53;1.77;;;1.10;;
6667;SDS011;3370;47.712;9.082;2023-05-10T01:47:38;1.20;;;1.20;;
6667;SDS011;3370;47.712;9.082;2023-05-10T01:50:18;0.83;;;0.83;;
6667;SDS011;3370;47.712;9.082;2023-05-10T01:52:56;1.53;;;1.00;;
6667;SDS011;3370;47.712;9.082;2023-05-10T01:55:27;1.40;;;1.30;;
6667;SDS011;3370;47.712;9.082;2023-05-10T01:58:02;1.10;;;1.10;;
6667;SDS011;3370;47.712;9.082;2023-05-10T02:00:33;1.13;;;1.13;;
6667;SDS011;3370;47.712;9.082;2023-05-10T02:03:00;1.80;;;1.03;;
6667;SDS011;3370;47.712;9.082;2023-05-10T02:05:31;1.43;;;0.80;;
6667;SDS011;3370;47.712;9.082;2023-05-10T02:07:58;2.00;;;0.90;;
6667;SDS011;3370;47.712;9.082;2023-05-10T02:10:26;1.10;;;1.10;;
6667;SDS011;3370;47.712;9.082;2023-05-10T02:12:53;1.57;;;0.97;;
6667;SDS011;3370;47.712;9.082;2023-05-10T02:15:23;1.30;;;1.20;;
6667;SDS011;3370;47.712;9.082;2023-05-10T02:17:51;1.23;;;1.10;;
6667;SDS011;3370;47.712;9.082;2023-05-10T02:20:20;2.77;;;1.23;;
6667;SDS011;3370;47.712;9.082;2023-05-10T02:22:48;0.83;;;0.83;;
6667;SDS011;3370;47.712;9.082;2023-05-10T02:25:16;1.07;;;0.97;;
6667;SDS011;3370;47.712;9.082;2023-05-10T02:27:44;1.00;;;1.00;;
6667;SDS011;3370;47.712;9.082;2023-05-10T02:30:11;0.90;;;0.90;;
6667;SDS011;3370;47.712;9.082;2023-05-10T02:32:38;1.03;;;1.03;;
6667;SDS011;3370;47.712;9.082;2023-05-10T02:35:04;1.43;;;0.90;;
6667;SDS011;3370;47.712;9.082;2023-05-10T02:37:32;1.13;;;1.13;;
6667;SDS011;3370;47.712;9.082;2023-05-10T02:40:00;1.40;;;1.20;;
6667;SDS011;3370;47.712;9.082;2023-05-10T02:42:29;4.20;;;1.40;;
6667;SDS011;3370;47.712;9.082;2023-05-10T02:44:59;1.20;;;1.10;;
6667;SDS011;3370;47.712;9.082;2023-05-10T02:47:28;2.47;;;1.60;;
6667;SDS011;3370;47.712;9.082;2023-05-10T02:49:54;1.40;;;1.40;;
6667;SDS011;3370;47.712;9.082;2023-05-10T02:52:27;2.77;;;1.20;;
6667;SDS011;3370;47.712;9.082;2023-05-10T02:55:02;3.33;;;1.33;;
6667;SDS011;3370;47.712;9.082;2023-05-10T02:57:31;1.10;;;1.10;;
6667;SDS011;3370;47.712;9.082;2023-05-10T02:59:59;1.50;;;1.40;;
6667;SDS011;3370;47.712;9.082;2023-05-10T03:02:26;1.83;;;1.20;;
6667;SDS011;3370;47.712;9.082;2023-05-10T03:04:52;1.70;;;1.60;;
6667;SDS011;3370;47.712;9.082;2023-05-10T03:07:18;1.30;;;1.30;;
6667;SDS011;3370;47.712;9.082;2023-05-10T03:09:46;4.53;;;1.60;;
6667;SDS011;3370;47.712;9.082;2023-05-10T03:12:15;1.83;;;1.73;;
6667;SDS011;3370;47.712;9.082;2023-05-10T03:15:21;1.50;;;1.40;;
6667;SDS011;3370;47.712;9.082;2023-05-10T03:20:59;1.63;;;1.53;;
6667;SDS011;3370;47.712;9.082;2023-05-10T03:26:12;1.77;;;1.33;;
6667;SDS011;3370;47.712;9.082;2023-05-10T03:28:52;1.40;;;1.40;;
6667;SDS011;3370;47.712;9.082;2023-05-10T03:31:19;1.30;;;1.20;;
6667;SDS011;3370;47.712;9.082;2023-05-10T03:33:48;1.67;;;1.57;;
6667;SDS011;3370;47.712;9.082;2023-05-10T03:36:15;2.57;;;1.30;;
6667;SDS011;3370;47.712;9.082;2023-05-10T03:38:41;2.23;;;1.80;;
6667;SDS011;3370;47.712;9.082;2023-05-10T03:41:07;1.70;;;1.60;;
6667;SDS011;3370;47.712;9.082;2023-05-10T03:43:33;1.77;;;1.67;;
6667;SDS011;3370;47.712;9.082;2023-05-10T03:46:01;3.63;;;1.40;;
6667;SDS011;3370;47.712;9.082;2023-05-10T03:48:30;1.40;;;1.33;;
6667;SDS011;3370;47.712;9.082;2023-05-10T03:50:57;2.77;;;1.30;;
6667;SDS011;3370;47.712;9.082;2023-05-10T03:53:23;1.23;;;1.23;;
6667;SDS011;3370;47.712;9.082;2023-05-10T03:55:49;1.50;;;1.40;;
6667;SDS011;3370;47.712;9.082;2023-05-10T03:58:15;1.40;;;1.30;;
6667;SDS011;3370;47.712;9.082;2023-05-10T04:00:41;1.40;;;1.30;;
6667;SDS011;3370;47.712;9.082;2023-05-10T04:03:09;1.80;;;1.20;;
6667;SDS011;3370;47.712;9.082;2023-05-10T04:05:36;1.40;;;1.40;;
6667;SDS011;3370;47.712;9.082;2023-05-10T04:08:02;1.30;;;1.20;;
6667;SDS011;3370;47.712;9.082;2023-05-10T04:10:28;2.50;;;1.27;;
6667;SDS011;3370;47.712;9.082;2023-05-10T04:12:54;2.00;;;1.37;;
6667;SDS011;3370;47.712;9.082;2023-05-10T04:15:20;1.70;;;1.20;;
6667;SDS011;3370;47.712;9.082;2023-05-10T04:17:46;1.83;;;1.20;;
6667;SDS011;3370;47.712;9.082;2023-05-10T04:20:12;1.23;;;1.13;;
6667;SDS011;3370;47.712;9.082;2023-05-10T04:22:38;2.63;;;1.20;;
6667;SDS011;3370;47.712;9.082;2023-05-10T04:25:04;1.87;;;1.30;;
6667;SDS011;3370;47.712;9.082;2023-05-10T04:27:31;1.53;;;1.03;;
6667;SDS011;3370;47.712;9.082;2023-05-10T04:29:57;1.23;;;1.23;;
6667;SDS011;3370;47.712;9.082;2023-05-10T04:32:22;1.73;;;1.40;;
6667;SDS011;3370;47.712;9.082;2023-05-10T04:34:48;1.13;;;1.07;;
6667;SDS011;3370;47.712;9.082;2023-05-10T04:37:16;2.77;;;1.27;;
6667;SDS011;3370;47.712;9.082;2023-05-10T04:39:42;1.53;;;1.00;;
6667;SDS011;3370;47.712;9.082;2023-05-10T04:42:07;2.23;;;1.40;;
6667;SDS011;3370;47.712;9.082;2023-05-10T04:44:33;2.57;;;1.20;;
6667;SDS011;3370;47.712;9.082;2023-05-10T04:46:59;1.43;;;1.37;;
6667;SDS011;3370;47.712;9.082;2023-05-10T04:49:27;1.53;;;1.20;;
6667;SDS011;3370;47.712;9.082;2023-05-10T04:51:53;1.20;;;1.20;;
6667;SDS011;3370;47.712;9.082;2023-05-10T04:54:19;2.00;;;1.10;;
6667;SDS011;3370;47.712;9.082;2023-05-10T04:56:44;1.63;;;1.17;;
6667;SDS011;3370;47.712;9.082;2023-05-10T04:59:10;2.83;;;1.60;;
6667;SDS011;3370;47.712;9.082;2023-05-10T05:01:36;3.50;;;1.40;;
6667;SDS011;3370;47.712;9.082;2023-05-10T05:04:02;2.07;;;1.10;;
6667;SDS011;3370;47.712;9.082;2023-05-10T05:06:28;1.47;;;1.23;;
6667;SDS011;3370;47.712;9.082;2023-05-10T05:08:53;2.27;;;1.30;;
6667;SDS011;3370;47.712;9.082;2023-05-10T05:11:19;4.60;;;1.00;;
6667;SDS011;3370;47.712;9.082;2023-05-10T05:13:46;1.90;;;1.47;;
6667;SDS011;3370;47.712;9.082;2023-05-10T05:16:11;1.50;;;1.50;;
6667;SDS011;3370;47.712;9.082;2023-05-10T05:18:37;1.00;;;1.00;;
6667;SDS011;3370;47.712;9.082;2023-05-10T05:21:12;2.30;;;1.40;;
6667;SDS011;3370;47.712;9.082;2023-05-10T05:23:40;1.10;;;1.10;;
6667;SDS011;3370;47.712;9.082;2023-05-10T05:26:06;1.20;;;1.10;;
6667;SDS011;3370;47.712;9.082;2023-05-10T05:28:32;4.13;;;1.13;;
6667;SDS011;3370;47.712;9.082;2023-05-10T05:31:02;1.23;;;1.17;;
6667;SDS011;3370;47.712;9.082;2023-05-10T05:33:35;5.73;;;1.20;;
6667;SDS011;3370;47.712;9.082;2023-05-10T05:36:02;1.13;;;1.13;;
6667;SDS011;3370;47.712;9.082;2023-05-10T05:38:29;1.23;;;1.13;;
6667;SDS011;3370;47.712;9.082;2023-05-10T05:40:55;1.37;;;1.30;;
6667;SDS011;3370;47.712;9.082;2023-05-10T05:43:21;1.23;;;1.23;;
6667;SDS011;3370;47.712;9.082;2023-05-10T05:45:47;1.30;;;1.30;;
6667;SDS011;3370;47.712;9.082;2023-05-10T05:48:13;6.20;;;1.47;;
6667;SDS011;3370;47.712;9.082;2023-05-10T05:50:39;1.30;;;1.20;;
6667;SDS011;3370;47.712;9.082;2023-05-10T05:53:05;1.30;;;1.20;;
6667;SDS011;3370;47.712;9.082;2023-05-10T05:55:30;1.67;;;1.40;;
6667;SDS011;3370;47.712;9.082;2023-05-10T05:57:57;1.60;;;1.50;;
6667;SDS011;3370;47.712;9.082;2023-05-10T06:00:23;1.63;;;1.50;;
6667;SDS011;3370;47.712;9.082;2023-05-10T06:02:49;1.63;;;1.53;;
6667;SDS011;3370;47.712;9.082;2023-05-10T06:05:15;1.70;;;1.60;;
6667;SDS011;3370;47.712;9.082;2023-05-10T06:07:40;1.37;;;1.37;;
6667;SDS011;3370;47.712;9.082;2023-05-10T06:10:09;3.43;;;1.30;;
6667;SDS011;3370;47.712;9.082;2023-05-10T06:12:35;1.63;;;1.53;;
6667;SDS011;3370;47.712;9.082;2023-05-10T06:15:01;3.90;;;1.63;;
6667;SDS011;3370;47.712;9.082;2023-05-10T06:17:27;1.70;;;1.60;;
6667;SDS011;3370;47.712;9.082;2023-05-10T06:19:53;1.40;;;1.30;;
6667;SDS011;3370;47.712;9.082;2023-05-10T06:22:20;1.43;;;1.10;;
6667;SDS011;3370;47.712;9.082;2023-05-10T06:24:47;1.13;;;1.13;;
6667;SDS011;3370;47.712;9.082;2023-05-10T06:27:14;1.50;;;1.40;;
6667;SDS011;3370;47.712;9.082;2023-05-10T06:29:40;2.60;;;1.60;;
6667;SDS011;3370;47.712;9.082;2023-05-10T06:32:05;1.37;;;1.30;;
6667;SDS011;3370;47.712;9.082;2023-05-10T06:34:31;2.27;;;1.20;;
6667;SDS011;3370;47.712;9.082;2023-05-10T06:36:57;4.13;;;1.70;;
6667;SDS011;3370;47.712;9.082;2023-05-10T06:39:23;1.70;;;1.60;;
6667;SDS011;3370;47.712;9.082;2023-05-10T06:41:49;2.10;;;1.10;;
6667;SDS011;3370;47.712;9.082;2023-05-10T06:44:15;1.57;;;1.47;;
6667;SDS011;3370;47.712;9.082;2023-05-10T06:46:40;1.30;;;1.20;;
6667;SDS011;3370;47.712;9.082;2023-05-10T06:49:06;1.03;;;1.03;;
6667;SDS011;3370;47.712;9.082;2023-05-10T06:51:32;1.50;;;0.97;;
6667;SDS011;3370;47.712;9.082;2023-05-10T06:53:58;10.37;;;1.30;;
6667;SDS011;3370;47.712;9.082;2023-05-10T06:56:25;2.30;;;1.30;;
6667;SDS011;3370;47.712;9.082;2023-05-10T06:58:51;1.30;;;1.20;;
6667;SDS011;3370;47.712;9.082;2023-05-10T07:01:16;1.30;;;1.20;;
6667;SDS011;3370;47.712;9.082;2023-05-10T07:03:42;1.30;;;1.30;;
6667;SDS011;3370;47.712;9.082;2023-05-10T07:06:08;3.07;;;1.13;;
6667;SDS011;3370;47.712;9.082;2023-05-10T07:08:34;1.50;;;1.40;;
6667;SDS011;3370;47.712;9.082;2023-05-10T07:11:03;4.93;;;1.50;;
6667;SDS011;3370;47.712;9.082;2023-05-10T07:13:35;1.13;;;1.00;;
6667;SDS011;3370;47.712;9.082;2023-05-10T07:16:01;2.30;;;1.30;;
6667;SDS011;3370;47.712;9.082;2023-05-10T07:18:27;1.43;;;1.20;;
6667;SDS011;3370;47.712;9.082;2023-05-10T07:20:53;3.33;;;0.93;;
6667;SDS011;3370;47.712;9.082;2023-05-10T07:23:20;1.00;;;1.00;;
6667;SDS011;3370;47.712;9.082;2023-05-10T07:25:46;1.13;;;1.10;;
6667;SDS011;3370;47.712;9.082;2023-05-10T07:28:16;0.93;;;0.93;;
6667;SDS011;3370;47.712;9.082;2023-05-10T07:30:41;1.90;;;1.30;;
6667;SDS011;3370;47.712;9.082;2023-05-10T07:33:08;1.20;;;1.10;;
6667;SDS011;3370;47.712;9.082;2023-05-10T07:35:36;1.27;;;0.93;;
6667;SDS011;3370;47.712;9.082;2023-05-10T07:38:02;2.30;;;1.00;;
6667;SDS011;3370;47.712;9.082;2023-05-10T07:40:28;1.33;;;1.10;;
6667;SDS011;3370;47.712;9.082;2023-05-10T07:42:54;0.90;;;0.90;;
6667;SDS011;3370;47.712;9.082;2023-05-10T07:45:20;1.00;;;1.00;;
6667;SDS011;3370;47.712;9.082;2023-05-10T07:47:46;2.57;;;1.27;;
6667;SDS011;3370;47.712;9.082;2023-05-10T07:50:12;1.00;;;0.83;;
6667;SDS011;3370;47.712;9.082;2023-05-10T07:52:39;1.90;;;0.90;;
6667;SDS011;3370;47.712;9.082;2023-05-10T07:55:05;0.77;;;0.77;;
6667;SDS011;3370;47.712;9.082;2023-05-10T07:57:32;1.27;;;0.97;;
6667;SDS011;3370;47.712;9.082;2023-05-10T07:59:59;0.67;;;0.67;;
6667;SDS011;3370;47.712;9.082;2023-05-10T08:02:25;2.97;;;0.80;;
6667;SDS011;3370;47.712;9.082;2023-05-10T08:04:51;1.43;;;0.83;;
6667;SDS011;3370;47.712;9.082;2023-05-10T08:07:17;0.70;;;0.70;;
6667;SDS011;3370;47.712;9.082;2023-05-10T08:09:42;0.90;;;0.90;;
6667;SDS011;3370;47.712;9.082;2023-05-10T08:12:08;1.70;;;0.87;;
6667;SDS011;3370;47.712;9.082;2023-05-10T08:14:34;0.80;;;0.80;;
6667;SDS011;3370;47.712;9.082;2023-05-10T08:17:01;0.70;;;0.70;;
6667;SDS011;3370;47.712;9.082;2023-05-10T08:19:28;0.90;;;0.90;;
6667;SDS011;3370;47.712;9.082;2023-05-10T08:21:54;0.80;;;0.80;;
6667;SDS011;3370;47.712;9.082;2023-05-10T08:24:22;0.90;;;0.90;;
6667;SDS011;3370;47.712;9.082;2023-05-10T08:26:48;1.03;;;1.00;;
6667;SDS011;3370;47.712;9.082;2023-05-10T08:29:14;0.90;;;0.90;;
6667;SDS011;3370;47.712;9.082;2023-05-10T08:31:40;1.07;;;1.07;;
6667;SDS011;3370;47.712;9.082;2023-05-10T08:34:06;1.20;;;1.10;;
6667;SDS011;3370;47.712;9.082;2023-05-10T08:36:32;1.70;;;1.60;;
6667;SDS011;3370;47.712;9.082;2023-05-10T08:38:58;8.90;;;1.10;;
6667;SDS011;3370;47.712;9.082;2023-05-10T08:41:24;1.20;;;1.20;;
6667;SDS011;3370;47.712;9.082;2023-05-10T08:43:50;1.70;;;1.50;;
6667;SDS011;3370;47.712;9.082;2023-05-10T08:46:20;1.60;;;1.40;;
6667;SDS011;3370;47.712;9.082;2023-05-10T08:48:49;1.40;;;1.30;;
6667;SDS011;3370;47.712;9.082;2023-05-10T08:51:19;2.10;;;1.40;;
6667;SDS011;3370;47.712;9.082;2023-05-10T08:53:50;1.17;;;1.10;;
6667;SDS011;3370;47.712;9.082;2023-05-10T08:56:16;1.50;;;1.40;;
6667;SDS011;3370;47.712;9.082;2023-05-10T08:58:42;2.70;;;1.30;;
6667;SDS011;3370;47.712;9.082;2023-05-10T09:01:09;1.63;;;1.50;;
6667;SDS011;3370;47.712;9.082;2023-05-10T09:03:37;2.30;;;1.50;;
6667;SDS011;3370;47.712;9.082;2023-05-10T09:06:03;7.50;;;1.60;;
6667;SDS011;3370;47.712;9.082;2023-05-10T09:08:30;1.90;;;1.33;;
6667;SDS011;3370;47.712;9.082;2023-05-10T09:10:56;1.80;;;1.50;;
6667;SDS011;3370;47.712;9.082;2023-05-10T09:13:23;3.20;;;1.93;;
6667;SDS011;3370;47.712;9.082;2023-05-10T09:15:49;3.10;;;1.27;;
6667;SDS011;3370;47.712;9.082;2023-05-10T09:18:16;1.90;;;1.50;;
6667;SDS011;3370;47.712;9.082;2023-05-10T09:20:42;1.20;;;1.20;;
6667;SDS011;3370;47.712;9.082;2023-05-10T09:23:08;3.43;;;1.90;;
6667;SDS011;3370;47.712;9.082;2023-05-10T09:25:34;1.50;;;1.40;;
6667;SDS011;3370;47.712;9.082;2023-05-10T09:28:00;1.93;;;1.70;;
6667;SDS011;3370;47.712;9.082;2023-05-10T09:30:26;2.30;;;1.50;;
6667;SDS011;3370;47.712;9.082;2023-05-10T09:32:57;2.67;;;1.87;;
6667;SDS011;3370;47.712;9.082;2023-05-10T09:35:25;3.53;;;1.47;;
6667;SDS011;3370;47.712;9.082;2023-05-10T09:37:57;2.37;;;1.53;;
6667;SDS011;3370;47.712;9.082;2023-05-10T09:40:26;1.53;;;1.43;;
6667;SDS011;3370;47.712;9.082;2023-05-10T09:42:55;2.10;;;1.50;;
6667;SDS011;3370;47.712;9.082;2023-05-10T09:45:22;1.57;;;1.40;;
6667;SDS011;3370;47.712;9.082;2023-05-10T09:47:53;2.60;;;1.30;;
6667;SDS011;3370;47.712;9.082;2023-05-10T09:50:20;7.93;;;2.03;;
6667;SDS011;3370;47.712;9.082;2023-05-10T09:55:43;1.67;;;1.57;;
6667;SDS011;3370;47.712;9.082;2023-05-10T09:58:12;1.40;;;1.23;;
6667;SDS011;3370;47.712;9.082;2023-05-10T10:00:40;5.50;;;1.33;;
6667;SDS011;3370;47.712;9.082;2023-05-10T10:03:14;6.20;;;2.10;;
6667;SDS011;3370;47.712;9.082;2023-05-10T10:05:45;12.03;;;1.57;;
6667;SDS011;3370;47.712;9.082;2023-05-10T10:08:12;3.90;;;1.37;;
6667;SDS011;3370;47.712;9.082;2023-05-10T10:10:39;9.23;;;2.07;;
6667;SDS011;3370;47.712;9.082;2023-05-10T10:13:06;4.30;;;1.30;;
6667;SDS011;3370;47.712;9.082;2023-05-10T10:15:33;4.17;;;1.53;;
6667;SDS011;3370;47.712;9.082;2023-05-10T10:18:00;2.33;;;1.30;;
6667;SDS011;3370;47.712;9.082;2023-05-10T10:20:26;4.63;;;1.40;;
6667;SDS011;3370;47.712;9.082;2023-05-10T10:22:53;4.40;;;1.63;;
6667;SDS011;3370;47.712;9.082;2023-05-10T10:25:19;2.57;;;1.57;;
6667;SDS011;3370;47.712;9.082;2023-05-10T10:35:58;3.43;;;1.30;;
6667;SDS011;3370;47.712;9.082;2023-05-10T10:38:35;1.73;;;1.60;;
6667;SDS011;3370;47.712;9.082;2023-05-10T10:41:10;3.73;;;1.40;;
6667;SDS011;3370;47.712;9.082;2023-05-10T10:47:01;2.30;;;1.30;;
6667;SDS011;3370;47.712;9.082;2023-05-10T10:57:42;3.80;;;1.83;;
6667;SDS011;3370;47.712;9.082;2023-05-10T11:08:13;3.57;;;1.60;;
6667;SDS011;3370;47.712;9.082;2023-05-10T11:10:52;2.43;;;1.53;;
6667;SDS011;3370;47.712;9.082;2023-05-10T11:13:43;3.13;;;1.87;;
6667;SDS011;3370;47.712;9.082;2023-05-10T11:16:15;1.83;;;1.27;;
6667;SDS011;3370;47.712;9.082;2023-05-10T11:21:24;1.60;;;1.47;;
6667;SDS011;3370;47.712;9.082;2023-05-10T11:23:50;6.57;;;1.70;;
6667;SDS011;3370;47.712;9.082;2023-05-10T11:26:20;3.70;;;1.60;;
6667;SDS011;3370;47.712;9.082;2023-05-10T11:28:50;4.43;;;1.67;;
6667;SDS011;3370;47.712;9.082;2023-05-10T11:31:23;3.13;;;1.50;;
6667;SDS011;3370;47.712;9.082;2023-05-10T11:33:52;4.60;;;1.50;;
6667;SDS011;3370;47.712;9.082;2023-05-10T11:36:21;4.90;;;1.57;;
6667;SDS011;3370;47.712;9.082;2023-05-10T11:38:53;6.40;;;1.60;;
6667;SDS011;3370;47.712;9.082;2023-05-10T11:41:21;3.93;;;1.67;;
6667;SDS011;3370;47.712;9.082;2023-05-10T11:43:52;2.50;;;1.40;;
6667;SDS011;3370;47.712;9.082;2023-05-10T11:46:20;6.13;;;2.20;;
6667;SDS011;3370;47.712;9.082;2023-05-10T11:48:51;3.60;;;1.50;;
6667;SDS011;3370;47.712;9.082;2023-05-10T11:51:26;7.43;;;1.50;;
6667;SDS011;3370;47.712;9.082;2023-05-10T11:53:52;7.90;;;1.67;;
6667;SDS011;3370;47.712;9.082;2023-05-10T11:56:20;3.30;;;1.60;;
6667;SDS011;3370;47.712;9.082;2023-05-10T11:58:52;4.73;;;1.70;;
6667;SDS011;3370;47.712;9.082;2023-05-10T12:01:22;6.90;;;1.50;;
6667;SDS011;3370;47.712;9.082;2023-05-10T12:03:52;5.67;;;1.37;;
6667;SDS011;3370;47.712;9.082;2023-05-10T12:06:25;1.97;;;1.50;;
6667;SDS011;3370;47.712;9.082;2023-05-10T12:08:56;2.27;;;1.70;;
6667;SDS011;3370;47.712;9.082;2023-05-10T12:11:27;1.73;;;1.20;;
6667;SDS011;3370;47.712;9.082;2023-05-10T12:13:54;2.80;;;1.27;;
6667;SDS011;3370;47.712;9.082;2023-05-10T12:16:25;1.50;;;1.27;;
6667;SDS011;3370;47.712;9.082;2023-05-10T12:18:56;2.00;;;1.40;;
6667;SDS011;3370;47.712;9.082;2023-05-10T12:21:25;2.63;;;1.20;;
6667;SDS011;3370;47.712;9.082;2023-05-10T12:23:54;1.70;;;1.37;;
6667;SDS011;3370;47.712;9.082;2023-05-10T12:26:26;1.47;;;1.20;;
6667;SDS011;3370;47.712;9.082;2023-05-10T12:28:54;1.70;;;1.20;;
6667;SDS011;3370;47.712;9.082;2023-05-10T12:31:48;1.07;;;0.90;;
6667;SDS011;3370;47.712;9.082;2023-05-10T12:34:34;1.87;;;1.10;;
6667;SDS011;3370;47.712;9.082;2023-05-10T12:37:01;1.60;;;1.07;;
6667;SDS011;3370;47.712;9.082;2023-05-10T12:39:41;3.73;;;1.10;;
6667;SDS011;3370;47.712;9.082;2023-05-10T12:42:09;1.37;;;1.00;;
6667;SDS011;3370;47.712;9.082;2023-05-10T12:44:35;1.73;;;1.10;;
6667;SDS011;3370;47.712;9.082;2023-05-10T12:47:01;2.20;;;1.20;;
6667;SDS011;3370;47.712;9.082;2023-05-10T12:49:27;5.73;;;1.33;;
6667;SDS011;3370;47.712;9.082;2023-05-10T12:51:53;3.20;;;1.13;;
6667;SDS011;3370;47.712;9.082;2023-05-10T12:54:19;5.50;;;0.83;;
6667;SDS011;3370;47.712;9.082;2023-05-10T12:56:45;4.50;;;1.30;;
6667;SDS011;3370;47.712;9.082;2023-05-10T12:59:10;3.53;;;0.97;;
6667;SDS011;3370;47.712;9.082;2023-05-10T13:01:36;1.30;;;1.20;;
6667;SDS011;3370;47.712;9.082;2023-05-10T13:04:02;3.47;;;1.20;;
6667;SDS011;3370;47.712;9.082;2023-05-10T13:06:28;0.97;;;0.97;;
6667;SDS011;3370;47.712;9.082;2023-05-10T13:08:53;1.53;;;1.00;;
6667;SDS011;3370;47.712;9.082;2023-05-10T13:11:19;1.53;;;1.10;;
6667;SDS011;3370;47.712;9.082;2023-05-10T13:13:46;3.50;;;1.00;;
6667;SDS011;3370;47.712;9.082;2023-05-10T13:16:12;1.33;;;1.07;;
6667;SDS011;3370;47.712;9.082;2023-05-10T13:18:37;1.20;;;1.07;;
6667;SDS011;3370;47.712;9.082;2023-05-10T13:21:03;2.43;;;1.20;;
6667;SDS011;3370;47.712;9.082;2023-05-10T13:23:30;5.27;;;1.53;;
6667;SDS011;3370;47.712;9.082;2023-05-10T13:25:56;2.33;;;1.20;;
6667;SDS011;3370;47.712;9.082;2023-05-10T13:28:22;1.43;;;1.30;;
6667;SDS011;3370;47.712;9.082;2023-05-10T13:30:47;1.70;;;1.17;;
6667;SDS011;3370;47.712;9.082;2023-05-10T13:33:13;3.43;;;1.23;;
6667;SDS011;3370;47.712;9.082;2023-05-10T13:35:39;3.50;;;1.10;;
6667;SDS011;3370;47.712;9.082;2023-05-10T13:38:05;3.43;;;1.53;;
6667;SDS011;3370;47.712;9.082;2023-05-10T13:40:32;6.20;;;1.20;;
6667;SDS011;3370;47.712;9.082;2023-05-10T13:42:59;1.40;;;1.20;;
6667;SDS011;3370;47.712;9.082;2023-05-10T13:45:25;3.27;;;1.00;;
6667;SDS011;3370;47.712;9.082;2023-05-10T13:47:50;1.50;;;1.40;;
6667;SDS011;3370;47.712;9.082;2023-05-10T13:50:17;1.33;;;1.10;;
6667;SDS011;3370;47.712;9.082;2023-05-10T13:52:43;2.23;;;1.10;;
6667;SDS011;3370;47.712;9.082;2023-05-10T13:55:09;1.80;;;1.00;;
6667;SDS011;3370;47.712;9.082;2023-05-10T13:57:37;1.57;;;1.00;;
6667;SDS011;3370;47.712;9.082;2023-05-10T14:00:03;4.80;;;1.20;;
6667;SDS011;3370;47.712;9.082;2023-05-10T14:02:29;2.00;;;1.37;;
6667;SDS011;3370;47.712;9.082;2023-05-10T14:04:55;2.87;;;1.27;;
6667;SDS011;3370;47.712;9.082;2023-05-10T14:07:21;5.57;;;1.50;;
6667;SDS011;3370;47.712;9.082;2023-05-10T14:09:47;2.67;;;1.30;;
6667;SDS011;3370;47.712;9.082;2023-05-10T14:12:13;1.40;;;1.23;;
6667;SDS011;3370;47.712;9.082;2023-05-10T14:14:39;2.53;;;1.37;;
6667;SDS011;3370;47.712;9.082;2023-05-10T14:17:05;7.50;;;1.63;;
6667;SDS011;3370;47.712;9.082;2023-05-10T14:19:31;2.70;;;1.23;;
6667;SDS011;3370;47.712;9.082;2023-05-10T14:21:58;1.37;;;0.97;;
6667;SDS011;3370;47.712;9.082;2023-05-10T14:24:24;3.23;;;1.30;;
6667;SDS011;3370;47.712;9.082;2023-05-10T14:26:50;5.00;;;1.47;;
6667;SDS011;3370;47.712;9.082;2023-05-10T14:29:18;4.57;;;1.47;;
6667;SDS011;3370;47.712;9.082;2023-05-10T14:31:45;3.00;;;1.40;;
6667;SDS011;3370;47.712;9.082;2023-05-10T14:34:11;7.80;;;3.33;;
6667;SDS011;3370;47.712;9.082;2023-05-10T14:36:37;12.93;;;3.73;;
6667;SDS011;3370;47.712;9.082;2023-05-10T14:39:03;10.13;;;4.90;;
6667;SDS011;3370;47.712;9.082;2023-05-10T14:41:29;24.50;;;6.60;;
6667;SDS011;3370;47.712;9.082;2023-05-10T14:43:55;12.03;;;4.60;;
6667;SDS011;3370;47.712;9.082;2023-05-10T14:46:20;6.07;;;3.67;;
6667;SDS011;3370;47.712;9.082;2023-05-10T14:48:46;4.27;;;2.40;;
6667;SDS011;3370;47.712;9.082;2023-05-10T14:51:12;2.30;;;1.70;;
6667;SDS011;3370;47.712;9.082;2023-05-10T14:53:38;6.00;;;1.57;;
6667;SDS011;3370;47.712;9.082;2023-05-10T14:56:04;2.93;;;1.50;;
6667;SDS011;3370;47.712;9.082;2023-05-10T14:58:30;1.27;;;1.17;;
6667;SDS011;3370;47.712;9.082;2023-05-10T15:00:55;2.70;;;1.60;;
6667;SDS011;3370;47.712;9.082;2023-05-10T15:03:22;3.97;;;2.33;;
6667;SDS011;3370;47.712;9.082;2023-05-10T15:05:48;8.90;;;3.27;;
6667;SDS011;3370;47.712;9.082;2023-05-10T15:08:13;4.93;;;2.47;;
6667;SDS011;3370;47.712;9.082;2023-05-10T15:10:39;6.20;;;2.60;;
6667;SDS011;3370;47.712;9.082;2023-05-10T15:13:05;4.13;;;2.00;;
6667;SDS011;3370;47.712;9.082;2023-05-10T15:15:31;3.97;;;1.60;;
6667;SDS011;3370;47.712;9.082;2023-05-10T15:17:57;1.57;;;1.30;;
6667;SDS011;3370;47.712;9.082;2023-05-10T15:20:22;3.50;;;1.43;;
6667;SDS011;3370;47.712;9.082;2023-05-10T15:22:48;3.90;;;1.70;;
6667;SDS011;3370;47.712;9.082;2023-05-10T15:25:14;2.70;;;2.20;;
6667;SDS011;3370;47.712;9.082;2023-05-10T15:27:40;4.40;;;1.43;;
6667;SDS011;3370;47.712;9.082;2023-05-10T15:30:08;4.00;;;2.20;;
6667;SDS011;3370;47.712;9.082;2023-05-10T15:32:35;3.47;;;1.30;;
6667;SDS011;3370;47.712;9.082;2023-05-10T15:35:02;4.00;;;1.43;;
6667;SDS011;3370;47.712;9.082;2023-05-10T15:37:28;1.37;;;1.27;;
6667;SDS011;3370;47.712;9.082;2023-05-10T15:39:54;3.03;;;1.37;;
6667;SDS011;3370;47.712;9.082;2023-05-10T15:42:27;1.93;;;1.40;;
6667;SDS011;3370;47.712;9.082;2023-05-10T15:44:53;3.97;;;1.60;;
6667;SDS011;3370;47.712;9.082;2023-05-10T15:47:18;4.17;;;1.43;;
6667;SDS011;3370;47.712;9.082;2023-05-10T15:49:44;4.10;;;1.60;;
6667;SDS011;3370;47.712;9.082;2023-05-10T15:52:10;2.03;;;1.20;;
6667;SDS011;3370;47.712;9.082;2023-05-10T15:54:36;1.40;;;1.23;;
6667;SDS011;3370;47.712;9.082;2023-05-10T15:57:02;1.80;;;1.40;;
6667;SDS011;3370;47.712;9.082;2023-05-10T15:59:28;4.10;;;1.80;;
6667;SDS011;3370;47.712;9.082;2023-05-10T16:01:53;1.83;;;1.30;;
6667;SDS011;3370;47.712;9.082;2023-05-10T16:04:19;2.90;;;1.30;;
6667;SDS011;3370;47.712;9.082;2023-05-10T16:06:45;1.10;;;1.00;;
6667;SDS011;3370;47.712;9.082;2023-05-10T16:09:11;7.17;;;1.80;;
6667;SDS011;3370;47.712;9.082;2023-05-10T16:11:37;1.53;;;1.43;;